ZYTX/SHE METAR and TAF weather

Enter ICAO airport designator
Station Type Date Time Source
ZYTX METAR 2020/01/19 14:30 UTC NOAA

ZYTX 191430Z 13003MPS 8000 NSC M11/M16 Q1020 NOSIG


Station Type Date Time Source
ZYTX Decoded METAR 2020/01/19 14:30 UTC NOAA

Shenyang / Taokian, China (ZYTX) 41-48N 123-24E
Jan 19, 2020 - 09:30 AM EST / 2020.01.19 1430 UTC
Wind: from the SE (130 degrees) at 7 MPH (6 KT):0
Visibility: 4 mile(s):0
Temperature: 12 F (-11 C)
Windchill: 1 F (-17 C):1
Dew Point: 3 F (-16 C)
Relative Humidity: 66%
Pressure (altimeter): 30.12 in. Hg (1020 hPa)
ob: ZYTX 191430Z 13003MPS 8000 NSC M11/M16 Q1020 NOSIG
cycle: 14

Station Type Date Time Source
ZYTX TAF 2020/01/19 12:03 UTC NOAA

TAF ZYTX 190706Z 1912/2012 27004MPS 6000 NSC TXM02/2006Z TNM14/1921Z
TEMPO 1922/2002 2000 BR

Example: see airport list